sensor_id;sensor_type;location;lat;lon;timestamp;temperature;humidity
13880;DHT22;7010;48.200;16.332;2023-04-08T00:00:31;6.50;99.90
13880;DHT22;7010;48.200;16.332;2023-04-08T00:02:59;6.50;99.90
13880;DHT22;7010;48.200;16.332;2023-04-08T00:05:28;6.40;99.90
13880;DHT22;7010;48.200;16.332;2023-04-08T00:07:56;6.40;99.90
13880;DHT22;7010;48.200;16.332;2023-04-08T00:10:25;6.40;99.90
13880;DHT22;7010;48.200;16.332;2023-04-08T00:12:54;6.30;99.90
13880;DHT22;7010;48.200;16.332;2023-04-08T00:15:23;6.20;99.90
13880;DHT22;7010;48.200;16.332;2023-04-08T00:17:51;6.00;99.90
13880;DHT22;7010;48.200;16.332;2023-04-08T00:20:22;5.90;99.90
13880;DHT22;7010;48.200;16.332;2023-04-08T00:22:50;5.80;99.90
13880;DHT22;7010;48.200;16.332;2023-04-08T00:25:18;5.70;99.90
13880;DHT22;7010;48.200;16.332;2023-04-08T00:27:50;5.70;99.90
13880;DHT22;7010;48.200;16.332;2023-04-08T00:30:20;5.60;99.90
13880;DHT22;7010;48.200;16.332;2023-04-08T00:32:48;5.60;99.90
13880;DHT22;7010;48.200;16.332;2023-04-08T00:35:17;5.50;99.90
13880;DHT22;7010;48.200;16.332;2023-04-08T00:37:45;5.40;99.90
13880;DHT22;7010;48.200;16.332;2023-04-08T00:40:13;5.40;99.90
13880;DHT22;7010;48.200;16.332;2023-04-08T00:42:43;5.40;99.90
13880;DHT22;7010;48.200;16.332;2023-04-08T00:45:12;5.30;99.90
13880;DHT22;7010;48.200;16.332;2023-04-08T00:47:42;5.30;99.90
13880;DHT22;7010;48.200;16.332;2023-04-08T00:50:10;5.20;99.90
13880;DHT22;7010;48.200;16.332;2023-04-08T00:52:38;5.20;99.90
13880;DHT22;7010;48.200;16.332;2023-04-08T00:55:07;5.20;99.90
13880;DHT22;7010;48.200;16.332;2023-04-08T00:57:35;5.10;99.90
13880;DHT22;7010;48.200;16.332;2023-04-08T01:00:04;5.10;99.90
13880;DHT22;7010;48.200;16.332;2023-04-08T01:02:40;5.00;99.90
13880;DHT22;7010;48.200;16.332;2023-04-08T01:05:17;5.00;99.90
13880;DHT22;7010;48.200;16.332;2023-04-08T01:07:48;5.00;99.90
13880;DHT22;7010;48.200;16.332;2023-04-08T01:10:22;5.00;99.90
13880;DHT22;7010;48.200;16.332;2023-04-08T01:12:55;4.90;99.90
13880;DHT22;7010;48.200;16.332;2023-04-08T01:15:25;4.90;99.90
13880;DHT22;7010;48.200;16.332;2023-04-08T01:17:56;4.80;99.90
13880;DHT22;7010;48.200;16.332;2023-04-08T01:20:28;4.80;99.90
13880;DHT22;7010;48.200;16.332;2023-04-08T01:23:05;4.80;99.90
13880;DHT22;7010;48.200;16.332;2023-04-08T01:25:36;4.80;99.90
13880;DHT22;7010;48.200;16.332;2023-04-08T01:28:07;4.80;99.90
13880;DHT22;7010;48.200;16.332;2023-04-08T01:30:38;4.70;99.90
13880;DHT22;7010;48.200;16.332;2023-04-08T01:33:09;4.70;99.90
13880;DHT22;7010;48.200;16.332;2023-04-08T01:35:41;4.70;99.90
13880;DHT22;7010;48.200;16.332;2023-04-08T01:38:13;4.70;99.90
13880;DHT22;7010;48.200;16.332;2023-04-08T01:40:42;4.60;99.90
13880;DHT22;7010;48.200;16.332;2023-04-08T01:43:15;4.60;99.90
13880;DHT22;7010;48.200;16.332;2023-04-08T01:45:45;4.60;99.90
13880;DHT22;7010;48.200;16.332;2023-04-08T01:48:14;4.50;99.90
13880;DHT22;7010;48.200;16.332;2023-04-08T01:50:44;4.50;99.90
13880;DHT22;7010;48.200;16.332;2023-04-08T01:53:13;4.50;99.90
13880;DHT22;7010;48.200;16.332;2023-04-08T01:55:44;4.50;99.90
13880;DHT22;7010;48.200;16.332;2023-04-08T01:58:20;4.50;99.90
13880;DHT22;7010;48.200;16.332;2023-04-08T02:00:50;4.40;99.90
13880;DHT22;7010;48.200;16.332;2023-04-08T02:03:24;4.40;99.90
13880;DHT22;7010;48.200;16.332;2023-04-08T02:05:56;4.40;99.90
13880;DHT22;7010;48.200;16.332;2023-04-08T02:08:24;4.40;99.90
13880;DHT22;7010;48.200;16.332;2023-04-08T02:10:53;4.30;99.90
13880;DHT22;7010;48.200;16.332;2023-04-08T02:13:22;4.30;99.90
13880;DHT22;7010;48.200;16.332;2023-04-08T02:15:56;4.30;99.90
13880;DHT22;7010;48.200;16.332;2023-04-08T02:18:28;4.30;99.90
13880;DHT22;7010;48.200;16.332;2023-04-08T02:21:03;4.20;99.90
13880;DHT22;7010;48.200;16.332;2023-04-08T02:23:35;4.20;99.90
13880;DHT22;7010;48.200;16.332;2023-04-08T02:26:07;4.10;99.90
13880;DHT22;7010;48.200;16.332;2023-04-08T02:28:41;4.10;99.90
13880;DHT22;7010;48.200;16.332;2023-04-08T02:31:11;4.10;99.90
13880;DHT22;7010;48.200;16.332;2023-04-08T02:33:41;4.00;99.90
13880;DHT22;7010;48.200;16.332;2023-04-08T02:36:11;4.00;99.90
13880;DHT22;7010;48.200;16.332;2023-04-08T02:38:39;4.00;99.90
13880;DHT22;7010;48.200;16.332;2023-04-08T02:41:07;4.00;99.90
13880;DHT22;7010;48.200;16.332;2023-04-08T02:43:35;3.90;99.90
13880;DHT22;7010;48.200;16.332;2023-04-08T02:46:05;3.90;99.90
13880;DHT22;7010;48.200;16.332;2023-04-08T02:48:34;3.80;99.90
13880;DHT22;7010;48.200;16.332;2023-04-08T02:51:03;3.80;99.90
13880;DHT22;7010;48.200;16.332;2023-04-08T02:53:31;3.80;99.90
13880;DHT22;7010;48.200;16.332;2023-04-08T02:55:59;3.80;99.90
13880;DHT22;7010;48.200;16.332;2023-04-08T02:58:27;3.80;99.90
13880;DHT22;7010;48.200;16.332;2023-04-08T03:00:56;3.70;99.90
13880;DHT22;7010;48.200;16.332;2023-04-08T03:03:26;3.60;99.90
13880;DHT22;7010;48.200;16.332;2023-04-08T03:05:56;3.50;99.90
13880;DHT22;7010;48.200;16.332;2023-04-08T03:08:24;3.40;99.90
13880;DHT22;7010;48.200;16.332;2023-04-08T03:10:53;3.40;99.90
13880;DHT22;7010;48.200;16.332;2023-04-08T03:13:21;3.30;99.90
13880;DHT22;7010;48.200;16.332;2023-04-08T03:15:49;3.30;99.90
13880;DHT22;7010;48.200;16.332;2023-04-08T03:18:18;3.30;99.90
13880;DHT22;7010;48.200;16.332;2023-04-08T03:20:48;3.20;99.90
13880;DHT22;7010;48.200;16.332;2023-04-08T03:23:17;3.10;99.90
13880;DHT22;7010;48.200;16.332;2023-04-08T03:25:45;3.00;99.90
13880;DHT22;7010;48.200;16.332;2023-04-08T03:28:13;3.00;99.90
13880;DHT22;7010;48.200;16.332;2023-04-08T03:30:42;2.90;99.90
13880;DHT22;7010;48.200;16.332;2023-04-08T03:33:10;2.90;99.90
13880;DHT22;7010;48.200;16.332;2023-04-08T03:35:38;2.80;99.90
13880;DHT22;7010;48.200;16.332;2023-04-08T03:38:08;2.80;99.90
13880;DHT22;7010;48.200;16.332;2023-04-08T03:40:36;2.80;99.90
13880;DHT22;7010;48.200;16.332;2023-04-08T03:43:05;2.80;99.90
13880;DHT22;7010;48.200;16.332;2023-04-08T03:45:34;2.80;99.90
13880;DHT22;7010;48.200;16.332;2023-04-08T03:48:02;2.80;99.90
13880;DHT22;7010;48.200;16.332;2023-04-08T03:50:31;2.80;99.90
13880;DHT22;7010;48.200;16.332;2023-04-08T03:52:59;2.70;99.90
13880;DHT22;7010;48.200;16.332;2023-04-08T03:55:29;2.70;99.90
13880;DHT22;7010;48.200;16.332;2023-04-08T03:57:57;2.70;99.90
13880;DHT22;7010;48.200;16.332;2023-04-08T04:00:25;2.60;99.90
13880;DHT22;7010;48.200;16.332;2023-04-08T04:02:54;2.60;99.90
13880;DHT22;7010;48.200;16.332;2023-04-08T04:05:22;2.60;99.90
13880;DHT22;7010;48.200;16.332;2023-04-08T04:07:51;2.50;99.90
13880;DHT22;7010;48.200;16.332;2023-04-08T04:10:19;2.50;99.90
13880;DHT22;7010;48.200;16.332;2023-04-08T04:12:49;2.40;99.90
13880;DHT22;7010;48.200;16.332;2023-04-08T04:15:17;2.50;99.90
13880;DHT22;7010;48.200;16.332;2023-04-08T04:17:47;2.40;99.90
13880;DHT22;7010;48.200;16.332;2023-04-08T04:20:16;2.40;99.90
13880;DHT22;7010;48.200;16.332;2023-04-08T04:22:44;2.40;99.90
13880;DHT22;7010;48.200;16.332;2023-04-08T04:25:13;2.40;99.90
13880;DHT22;7010;48.200;16.332;2023-04-08T04:27:41;2.50;99.90
13880;DHT22;7010;48.200;16.332;2023-04-08T04:30:11;2.50;99.90
13880;DHT22;7010;48.200;16.332;2023-04-08T04:32:41;2.50;99.90
13880;DHT22;7010;48.200;16.332;2023-04-08T04:35:10;2.50;99.90
13880;DHT22;7010;48.200;16.332;2023-04-08T04:37:39;2.50;99.90
13880;DHT22;7010;48.200;16.332;2023-04-08T04:40:08;2.50;99.90
13880;DHT22;7010;48.200;16.332;2023-04-08T04:42:36;2.50;99.90
13880;DHT22;7010;48.200;16.332;2023-04-08T04:45:06;2.50;99.90
13880;DHT22;7010;48.200;16.332;2023-04-08T04:47:36;2.50;99.90
13880;DHT22;7010;48.200;16.332;2023-04-08T04:50:05;2.60;99.90
13880;DHT22;7010;48.200;16.332;2023-04-08T04:52:35;2.70;99.90
13880;DHT22;7010;48.200;16.332;2023-04-08T04:55:09;2.70;99.90
13880;DHT22;7010;48.200;16.332;2023-04-08T04:57:38;2.70;99.90
13880;DHT22;7010;48.200;16.332;2023-04-08T05:00:07;2.70;99.90
13880;DHT22;7010;48.200;16.332;2023-04-08T05:02:37;2.80;99.90
13880;DHT22;7010;48.200;16.332;2023-04-08T05:05:07;2.80;99.90
13880;DHT22;7010;48.200;16.332;2023-04-08T05:07:35;2.80;99.90
13880;DHT22;7010;48.200;16.332;2023-04-08T05:10:04;2.80;99.90
13880;DHT22;7010;48.200;16.332;2023-04-08T05:12:33;2.80;99.90
13880;DHT22;7010;48.200;16.332;2023-04-08T05:15:03;2.90;99.90
13880;DHT22;7010;48.200;16.332;2023-04-08T05:17:32;3.00;99.90
13880;DHT22;7010;48.200;16.332;2023-04-08T05:20:02;3.00;99.90
13880;DHT22;7010;48.200;16.332;2023-04-08T05:22:31;3.00;99.90
13880;DHT22;7010;48.200;16.332;2023-04-08T05:25:00;3.00;99.90
13880;DHT22;7010;48.200;16.332;2023-04-08T05:27:28;3.00;99.90
13880;DHT22;7010;48.200;16.332;2023-04-08T05:29:57;3.10;99.90
13880;DHT22;7010;48.200;16.332;2023-04-08T05:32:25;3.10;99.90
13880;DHT22;7010;48.200;16.332;2023-04-08T05:34:55;3.10;99.90
13880;DHT22;7010;48.200;16.332;2023-04-08T05:37:25;3.10;99.90
13880;DHT22;7010;48.200;16.332;2023-04-08T05:39:53;3.20;99.90
13880;DHT22;7010;48.200;16.332;2023-04-08T05:42:22;3.10;99.90
13880;DHT22;7010;48.200;16.332;2023-04-08T05:44:50;3.10;99.90
13880;DHT22;7010;48.200;16.332;2023-04-08T05:47:19;3.20;99.90
13880;DHT22;7010;48.200;16.332;2023-04-08T05:49:47;3.20;99.90
13880;DHT22;7010;48.200;16.332;2023-04-08T05:52:17;3.20;99.90
13880;DHT22;7010;48.200;16.332;2023-04-08T05:54:46;3.20;99.90
13880;DHT22;7010;48.200;16.332;2023-04-08T05:57:15;3.30;99.90
13880;DHT22;7010;48.200;16.332;2023-04-08T05:59:43;3.30;99.90
13880;DHT22;7010;48.200;16.332;2023-04-08T06:02:11;3.40;99.90
13880;DHT22;7010;48.200;16.332;2023-04-08T06:04:40;3.40;99.90
13880;DHT22;7010;48.200;16.332;2023-04-08T06:07:08;3.40;99.90
13880;DHT22;7010;48.200;16.332;2023-04-08T06:09:36;3.40;99.90
13880;DHT22;7010;48.200;16.332;2023-04-08T06:12:06;3.30;99.90
13880;DHT22;7010;48.200;16.332;2023-04-08T06:14:35;3.30;99.90
13880;DHT22;7010;48.200;16.332;2023-04-08T06:17:03;3.30;99.90
13880;DHT22;7010;48.200;16.332;2023-04-08T06:19:34;3.30;99.90
13880;DHT22;7010;48.200;16.332;2023-04-08T06:22:02;3.40;99.90
13880;DHT22;7010;48.200;16.332;2023-04-08T06:24:30;3.40;99.90
13880;DHT22;7010;48.200;16.332;2023-04-08T06:26:59;3.40;99.90
13880;DHT22;7010;48.200;16.332;2023-04-08T06:29:28;3.40;99.90
13880;DHT22;7010;48.200;16.332;2023-04-08T06:31:57;3.30;99.90
13880;DHT22;7010;48.200;16.332;2023-04-08T06:34:25;3.40;99.90
13880;DHT22;7010;48.200;16.332;2023-04-08T06:36:53;3.30;99.90
13880;DHT22;7010;48.200;16.332;2023-04-08T06:39:22;3.40;99.90
13880;DHT22;7010;48.200;16.332;2023-04-08T06:41:50;3.40;99.90
13880;DHT22;7010;48.200;16.332;2023-04-08T06:44:20;3.40;99.90
13880;DHT22;7010;48.200;16.332;2023-04-08T06:46:50;3.50;99.90
13880;DHT22;7010;48.200;16.332;2023-04-08T06:49:18;3.50;99.90
13880;DHT22;7010;48.200;16.332;2023-04-08T06:51:46;3.50;99.90
13880;DHT22;7010;48.200;16.332;2023-04-08T06:54:15;3.40;99.90
13880;DHT22;7010;48.200;16.332;2023-04-08T06:56:43;3.40;99.90
13880;DHT22;7010;48.200;16.332;2023-04-08T06:59:12;3.50;99.90
13880;DHT22;7010;48.200;16.332;2023-04-08T07:01:40;3.60;99.90
13880;DHT22;7010;48.200;16.332;2023-04-08T07:04:10;3.60;99.90
13880;DHT22;7010;48.200;16.332;2023-04-08T07:06:38;3.70;99.90
13880;DHT22;7010;48.200;16.332;2023-04-08T07:09:07;3.60;99.90
13880;DHT22;7010;48.200;16.332;2023-04-08T07:11:35;3.60;99.90
13880;DHT22;7010;48.200;16.332;2023-04-08T07:14:03;3.60;99.90
13880;DHT22;7010;48.200;16.332;2023-04-08T07:16:32;3.70;99.90
13880;DHT22;7010;48.200;16.332;2023-04-08T07:19:00;3.70;99.90
13880;DHT22;7010;48.200;16.332;2023-04-08T07:21:30;3.80;99.90
13880;DHT22;7010;48.200;16.332;2023-04-08T07:23:58;3.80;99.90
13880;DHT22;7010;48.200;16.332;2023-04-08T07:26:26;3.80;99.90
13880;DHT22;7010;48.200;16.332;2023-04-08T07:28:55;3.70;99.90
13880;DHT22;7010;48.200;16.332;2023-04-08T07:31:23;3.80;99.90
13880;DHT22;7010;48.200;16.332;2023-04-08T07:33:52;3.80;99.90
13880;DHT22;7010;48.200;16.332;2023-04-08T07:36:20;3.90;99.90
13880;DHT22;7010;48.200;16.332;2023-04-08T07:38:50;3.90;99.90
13880;DHT22;7010;48.200;16.332;2023-04-08T07:41:18;3.90;99.90
13880;DHT22;7010;48.200;16.332;2023-04-08T07:43:46;4.00;99.90
13880;DHT22;7010;48.200;16.332;2023-04-08T07:46:14;4.00;99.90
13880;DHT22;7010;48.200;16.332;2023-04-08T07:48:43;4.00;99.90
13880;DHT22;7010;48.200;16.332;2023-04-08T07:51:11;4.10;99.90
13880;DHT22;7010;48.200;16.332;2023-04-08T07:53:40;4.00;99.90
13880;DHT22;7010;48.200;16.332;2023-04-08T07:56:14;4.00;99.90
13880;DHT22;7010;48.200;16.332;2023-04-08T07:58:47;4.00;99.90
13880;DHT22;7010;48.200;16.332;2023-04-08T08:01:20;4.00;99.90
13880;DHT22;7010;48.200;16.332;2023-04-08T08:03:49;4.00;99.90
13880;DHT22;7010;48.200;16.332;2023-04-08T08:06:21;4.00;99.90
13880;DHT22;7010;48.200;16.332;2023-04-08T08:08:49;4.00;99.90
13880;DHT22;7010;48.200;16.332;2023-04-08T08:11:19;4.10;99.90
13880;DHT22;7010;48.200;16.332;2023-04-08T08:13:48;4.10;99.90
13880;DHT22;7010;48.200;16.332;2023-04-08T08:16:16;4.20;99.90
13880;DHT22;7010;48.200;16.332;2023-04-08T08:18:45;4.20;99.90
13880;DHT22;7010;48.200;16.332;2023-04-08T08:21:13;4.20;99.90
13880;DHT22;7010;48.200;16.332;2023-04-08T08:23:41;4.20;99.90
13880;DHT22;7010;48.200;16.332;2023-04-08T08:26:10;4.30;99.90
13880;DHT22;7010;48.200;16.332;2023-04-08T08:28:40;4.20;99.90
13880;DHT22;7010;48.200;16.332;2023-04-08T08:31:08;4.20;99.90
13880;DHT22;7010;48.200;16.332;2023-04-08T08:33:36;4.20;99.90
13880;DHT22;7010;48.200;16.332;2023-04-08T08:36:04;4.20;99.90
13880;DHT22;7010;48.200;16.332;2023-04-08T08:38:33;4.20;99.90
13880;DHT22;7010;48.200;16.332;2023-04-08T08:41:02;4.30;99.90
13880;DHT22;7010;48.200;16.332;2023-04-08T08:43:31;4.20;99.90
13880;DHT22;7010;48.200;16.332;2023-04-08T08:46:02;4.30;99.90
13880;DHT22;7010;48.200;16.332;2023-04-08T08:48:30;4.40;99.90
13880;DHT22;7010;48.200;16.332;2023-04-08T08:50:58;4.40;99.90
13880;DHT22;7010;48.200;16.332;2023-04-08T08:53:29;4.50;99.90
13880;DHT22;7010;48.200;16.332;2023-04-08T08:56:15;4.50;99.90
13880;DHT22;7010;48.200;16.332;2023-04-08T08:58:45;4.60;99.90
13880;DHT22;7010;48.200;16.332;2023-04-08T09:01:31;4.60;99.90
13880;DHT22;7010;48.200;16.332;2023-04-08T09:04:07;4.70;99.90
13880;DHT22;7010;48.200;16.332;2023-04-08T09:06:37;4.70;99.90
13880;DHT22;7010;48.200;16.332;2023-04-08T09:09:06;4.70;99.90
13880;DHT22;7010;48.200;16.332;2023-04-08T09:11:38;4.60;99.90
13880;DHT22;7010;48.200;16.332;2023-04-08T09:14:20;4.50;99.90
13880;DHT22;7010;48.200;16.332;2023-04-08T09:16:50;4.60;99.90
13880;DHT22;7010;48.200;16.332;2023-04-08T09:19:18;4.60;99.90
13880;DHT22;7010;48.200;16.332;2023-04-08T09:22:03;4.60;99.90
13880;DHT22;7010;48.200;16.332;2023-04-08T09:24:32;4.70;99.90
13880;DHT22;7010;48.200;16.332;2023-04-08T09:27:01;4.70;99.90
13880;DHT22;7010;48.200;16.332;2023-04-08T09:29:29;4.70;99.90
13880;DHT22;7010;48.200;16.332;2023-04-08T09:32:03;4.80;99.90
13880;DHT22;7010;48.200;16.332;2023-04-08T09:34:32;4.70;99.90
13880;DHT22;7010;48.200;16.332;2023-04-08T09:37:01;4.70;99.90
13880;DHT22;7010;48.200;16.332;2023-04-08T09:39:30;4.60;99.90
13880;DHT22;7010;48.200;16.332;2023-04-08T09:41:59;4.70;99.90
13880;DHT22;7010;48.200;16.332;2023-04-08T09:44:33;4.70;99.90
13880;DHT22;7010;48.200;16.332;2023-04-08T09:47:09;4.80;99.90
13880;DHT22;7010;48.200;16.332;2023-04-08T09:49:45;4.90;99.90
13880;DHT22;7010;48.200;16.332;2023-04-08T09:52:19;5.00;99.90
13880;DHT22;7010;48.200;16.332;2023-04-08T09:54:52;5.00;99.90
13880;DHT22;7010;48.200;16.332;2023-04-08T09:57:27;5.10;99.90
13880;DHT22;7010;48.200;16.332;2023-04-08T10:00:04;5.10;99.90
13880;DHT22;7010;48.200;16.332;2023-04-08T10:02:42;5.10;99.90
13880;DHT22;7010;48.200;16.332;2023-04-08T10:05:13;5.10;99.90
13880;DHT22;7010;48.200;16.332;2023-04-08T10:07:42;5.20;99.90
13880;DHT22;7010;48.200;16.332;2023-04-08T10:10:11;5.20;99.90
13880;DHT22;7010;48.200;16.332;2023-04-08T10:12:39;5.30;99.90
13880;DHT22;7010;48.200;16.332;2023-04-08T10:15:21;5.10;99.90
13880;DHT22;7010;48.200;16.332;2023-04-08T10:17:52;5.10;99.90
13880;DHT22;7010;48.200;16.332;2023-04-08T10:20:42;5.10;99.90
13880;DHT22;7010;48.200;16.332;2023-04-08T10:23:11;5.10;99.90
13880;DHT22;7010;48.200;16.332;2023-04-08T10:25:41;5.10;99.90
13880;DHT22;7010;48.200;16.332;2023-04-08T10:28:23;5.00;99.90
13880;DHT22;7010;48.200;16.332;2023-04-08T10:30:52;5.00;99.90
13880;DHT22;7010;48.200;16.332;2023-04-08T10:33:24;4.90;99.90
13880;DHT22;7010;48.200;16.332;2023-04-08T10:36:00;4.90;99.90
13880;DHT22;7010;48.200;16.332;2023-04-08T10:38:30;4.90;99.90
13880;DHT22;7010;48.200;16.332;2023-04-08T10:41:00;4.90;99.90
13880;DHT22;7010;48.200;16.332;2023-04-08T10:43:31;4.90;99.90
13880;DHT22;7010;48.200;16.332;2023-04-08T10:46:00;4.80;99.90
13880;DHT22;7010;48.200;16.332;2023-04-08T10:48:30;4.80;99.90
13880;DHT22;7010;48.200;16.332;2023-04-08T10:51:00;4.80;99.90
13880;DHT22;7010;48.200;16.332;2023-04-08T10:53:30;4.80;99.90
13880;DHT22;7010;48.200;16.332;2023-04-08T10:56:03;4.90;99.90
13880;DHT22;7010;48.200;16.332;2023-04-08T10:58:33;4.90;99.90
13880;DHT22;7010;48.200;16.332;2023-04-08T11:01:03;5.10;99.90
13880;DHT22;7010;48.200;16.332;2023-04-08T11:03:35;5.10;99.90
13880;DHT22;7010;48.200;16.332;2023-04-08T11:06:04;5.20;99.90
13880;DHT22;7010;48.200;16.332;2023-04-08T11:08:34;5.20;99.90
13880;DHT22;7010;48.200;16.332;2023-04-08T11:11:04;5.30;99.90
13880;DHT22;7010;48.200;16.332;2023-04-08T11:13:35;5.40;99.90
13880;DHT22;7010;48.200;16.332;2023-04-08T11:16:05;5.40;99.90
13880;DHT22;7010;48.200;16.332;2023-04-08T11:18:45;5.40;99.90
13880;DHT22;7010;48.200;16.332;2023-04-08T11:21:14;5.40;99.90
13880;DHT22;7010;48.200;16.332;2023-04-08T11:23:43;5.40;99.90
13880;DHT22;7010;48.200;16.332;2023-04-08T11:26:12;5.40;99.90
13880;DHT22;7010;48.200;16.332;2023-04-08T11:28:42;5.40;99.90
13880;DHT22;7010;48.200;16.332;2023-04-08T11:31:12;5.30;99.90
13880;DHT22;7010;48.200;16.332;2023-04-08T11:33:45;5.30;99.90
13880;DHT22;7010;48.200;16.332;2023-04-08T11:36:16;5.30;99.90
13880;DHT22;7010;48.200;16.332;2023-04-08T11:38:44;5.30;99.90
13880;DHT22;7010;48.200;16.332;2023-04-08T11:41:14;5.30;99.90
13880;DHT22;7010;48.200;16.332;2023-04-08T11:43:55;5.30;99.90
13880;DHT22;7010;48.200;16.332;2023-04-08T11:46:24;5.30;99.90
13880;DHT22;7010;48.200;16.332;2023-04-08T11:49:04;5.30;99.90
13880;DHT22;7010;48.200;16.332;2023-04-08T11:51:34;5.30;99.90
13880;DHT22;7010;48.200;16.332;2023-04-08T11:54:04;5.40;99.90
13880;DHT22;7010;48.200;16.332;2023-04-08T11:56:44;5.40;99.90
13880;DHT22;7010;48.200;16.332;2023-04-08T11:59:13;5.50;99.90
13880;DHT22;7010;48.200;16.332;2023-04-08T12:01:41;5.50;99.90
13880;DHT22;7010;48.200;16.332;2023-04-08T12:04:11;5.60;99.90
13880;DHT22;7010;48.200;16.332;2023-04-08T12:06:40;5.50;99.90
13880;DHT22;7010;48.200;16.332;2023-04-08T12:09:12;5.50;99.90
13880;DHT22;7010;48.200;16.332;2023-04-08T12:11:40;5.50;99.90
13880;DHT22;7010;48.200;16.332;2023-04-08T12:14:09;5.40;99.90
13880;DHT22;7010;48.200;16.332;2023-04-08T12:16:37;5.40;99.90
13880;DHT22;7010;48.200;16.332;2023-04-08T12:19:05;5.50;99.90
13880;DHT22;7010;48.200;16.332;2023-04-08T12:21:35;5.50;99.90
13880;DHT22;7010;48.200;16.332;2023-04-08T12:24:04;5.50;99.90
13880;DHT22;7010;48.200;16.332;2023-04-08T12:26:32;5.60;99.90
13880;DHT22;7010;48.200;16.332;2023-04-08T12:29:00;5.60;99.90
13880;DHT22;7010;48.200;16.332;2023-04-08T12:31:29;5.60;99.90
13880;DHT22;7010;48.200;16.332;2023-04-08T12:33:57;5.70;99.90
13880;DHT22;7010;48.200;16.332;2023-04-08T12:36:25;5.70;99.90
13880;DHT22;7010;48.200;16.332;2023-04-08T12:38:55;5.70;99.90
13880;DHT22;7010;48.200;16.332;2023-04-08T12:41:23;5.80;99.90
13880;DHT22;7010;48.200;16.332;2023-04-08T12:43:52;5.80;99.90
13880;DHT22;7010;48.200;16.332;2023-04-08T12:46:20;5.90;99.90
13880;DHT22;7010;48.200;16.332;2023-04-08T12:48:48;5.90;99.90
13880;DHT22;7010;48.200;16.332;2023-04-08T12:51:29;6.00;99.90
13880;DHT22;7010;48.200;16.332;2023-04-08T12:53:59;6.00;99.90
13880;DHT22;7010;48.200;16.332;2023-04-08T12:56:31;6.10;99.90
13880;DHT22;7010;48.200;16.332;2023-04-08T12:58:59;6.20;99.90
13880;DHT22;7010;48.200;16.332;2023-04-08T13:01:28;6.30;99.90
13880;DHT22;7010;48.200;16.332;2023-04-08T13:03:56;6.30;99.90
13880;DHT22;7010;48.200;16.332;2023-04-08T13:06:25;6.30;99.90
13880;DHT22;7010;48.200;16.332;2023-04-08T13:08:54;6.30;99.90
13880;DHT22;7010;48.200;16.332;2023-04-08T13:11:24;6.30;99.90
13880;DHT22;7010;48.200;16.332;2023-04-08T13:13:52;6.30;99.90
13880;DHT22;7010;48.200;16.332;2023-04-08T13:16:20;6.30;99.90
13880;DHT22;7010;48.200;16.332;2023-04-08T13:18:48;6.40;99.90
13880;DHT22;7010;48.200;16.332;2023-04-08T13:21:18;6.40;99.90
13880;DHT22;7010;48.200;16.332;2023-04-08T13:23:47;6.40;99.90
13880;DHT22;7010;48.200;16.332;2023-04-08T13:26:15;6.40;99.90
13880;DHT22;7010;48.200;16.332;2023-04-08T13:28:45;6.40;99.90
13880;DHT22;7010;48.200;16.332;2023-04-08T13:31:25;6.40;99.90
13880;DHT22;7010;48.200;16.332;2023-04-08T13:33:54;6.40;99.90
13880;DHT22;7010;48.200;16.332;2023-04-08T13:36:24;6.40;99.90
13880;DHT22;7010;48.200;16.332;2023-04-08T13:38:54;6.30;99.90
13880;DHT22;7010;48.200;16.332;2023-04-08T13:41:23;6.40;99.90
13880;DHT22;7010;48.200;16.332;2023-04-08T13:43:55;6.40;99.90
13880;DHT22;7010;48.200;16.332;2023-04-08T13:46:24;6.40;99.90
13880;DHT22;7010;48.200;16.332;2023-04-08T13:48:52;6.40;99.90
13880;DHT22;7010;48.200;16.332;2023-04-08T13:51:21;6.40;99.90
13880;DHT22;7010;48.200;16.332;2023-04-08T13:53:49;6.50;99.90
13880;DHT22;7010;48.200;16.332;2023-04-08T13:56:18;6.60;99.90
13880;DHT22;7010;48.200;16.332;2023-04-08T13:58:46;6.70;99.90
13880;DHT22;7010;48.200;16.332;2023-04-08T14:01:24;6.80;99.90
13880;DHT22;7010;48.200;16.332;2023-04-08T14:03:52;6.80;99.90
13880;DHT22;7010;48.200;16.332;2023-04-08T14:06:21;6.80;99.90
13880;DHT22;7010;48.200;16.332;2023-04-08T14:08:50;6.80;99.90
13880;DHT22;7010;48.200;16.332;2023-04-08T14:11:18;6.80;99.90
13880;DHT22;7010;48.200;16.332;2023-04-08T14:13:47;6.80;99.90
13880;DHT22;7010;48.200;16.332;2023-04-08T14:16:15;6.70;99.90
13880;DHT22;7010;48.200;16.332;2023-04-08T14:18:45;6.70;99.90
13880;DHT22;7010;48.200;16.332;2023-04-08T14:21:15;6.70;99.90
13880;DHT22;7010;48.200;16.332;2023-04-08T14:23:44;6.70;99.90
13880;DHT22;7010;48.200;16.332;2023-04-08T14:26:12;6.80;99.90
13880;DHT22;7010;48.200;16.332;2023-04-08T14:28:41;6.80;99.90
13880;DHT22;7010;48.200;16.332;2023-04-08T14:31:09;6.80;99.90
13880;DHT22;7010;48.200;16.332;2023-04-08T14:33:38;6.80;99.90
13880;DHT22;7010;48.200;16.332;2023-04-08T14:36:08;6.80;99.90
13880;DHT22;7010;48.200;16.332;2023-04-08T14:38:37;6.80;99.90
13880;DHT22;7010;48.200;16.332;2023-04-08T14:41:06;6.90;99.90
13880;DHT22;7010;48.200;16.332;2023-04-08T14:43:34;6.90;99.90
13880;DHT22;7010;48.200;16.332;2023-04-08T14:46:02;6.90;99.90
13880;DHT22;7010;48.200;16.332;2023-04-08T14:48:30;6.90;99.90
13880;DHT22;7010;48.200;16.332;2023-04-08T14:50:59;7.00;99.90
13880;DHT22;7010;48.200;16.332;2023-04-08T14:53:28;7.00;99.90
13880;DHT22;7010;48.200;16.332;2023-04-08T14:55:57;7.00;99.90
13880;DHT22;7010;48.200;16.332;2023-04-08T14:58:25;7.00;99.90
13880;DHT22;7010;48.200;16.332;2023-04-08T15:00:53;7.00;99.90
13880;DHT22;7010;48.200;16.332;2023-04-08T15:03:21;7.00;99.90
13880;DHT22;7010;48.200;16.332;2023-04-08T15:05:50;7.00;99.90
13880;DHT22;7010;48.200;16.332;2023-04-08T15:08:19;7.00;99.90
13880;DHT22;7010;48.200;16.332;2023-04-08T15:10:49;7.00;99.90
13880;DHT22;7010;48.200;16.332;2023-04-08T15:13:17;7.10;99.90
13880;DHT22;7010;48.200;16.332;2023-04-08T15:15:45;7.00;99.90
13880;DHT22;7010;48.200;16.332;2023-04-08T15:18:13;7.00;99.90
13880;DHT22;7010;48.200;16.332;2023-04-08T15:20:42;7.00;99.90
13880;DHT22;7010;48.200;16.332;2023-04-08T15:23:10;7.10;99.90
13880;DHT22;7010;48.200;16.332;2023-04-08T15:25:38;7.00;99.90
13880;DHT22;7010;48.200;16.332;2023-04-08T15:28:08;7.00;99.90
13880;DHT22;7010;48.200;16.332;2023-04-08T15:30:36;7.00;99.90
13880;DHT22;7010;48.200;16.332;2023-04-08T15:33:04;7.00;99.90
13880;DHT22;7010;48.200;16.332;2023-04-08T15:35:33;6.90;99.90
13880;DHT22;7010;48.200;16.332;2023-04-08T15:38:01;6.90;99.90
13880;DHT22;7010;48.200;16.332;2023-04-08T15:40:32;6.80;99.90
13880;DHT22;7010;48.200;16.332;2023-04-08T15:43:00;6.80;99.90
13880;DHT22;7010;48.200;16.332;2023-04-08T15:45:31;6.80;99.90
13880;DHT22;7010;48.200;16.332;2023-04-08T15:47:59;6.70;99.90
13880;DHT22;7010;48.200;16.332;2023-04-08T15:50:27;6.60;99.90
13880;DHT22;7010;48.200;16.332;2023-04-08T15:52:56;6.60;99.90
13880;DHT22;7010;48.200;16.332;2023-04-08T15:55:24;6.60;99.90
13880;DHT22;7010;48.200;16.332;2023-04-08T15:57:52;6.60;99.90
13880;DHT22;7010;48.200;16.332;2023-04-08T16:00:22;6.60;99.90